Time;durP1;ratioP1;P1;durP2;ratioP2;P2;SDS_P1;SDS_P2;PMS_P1;PMS_P2;Temp;Humidity;BMP_temperature;BMP_pressure;BME280_temperature;BME280_humidity;BME280_pressure;Samples;Min_cycle;Max_cycle;Signal;HPM_P1;HPM_P2
2022/08/01 00:03:59;;;;;;;3.47;2.22;;;;;;;17.63;61.77;99613.59;7630908;32;37142;-81
2022/08/01 00:08:15;;;;;;;6.15;2.28;;;;;;;17.54;61.95;99610.03;7633719;32;37440;-81
2022/08/01 00:12:32;;;;;;;4.18;2.33;;;;;;;17.63;61.57;99602.56;7633268;32;40734;-81
2022/08/01 00:16:48;;;;;;;2.75;2.00;;;;;;;17.75;61.27;99601.91;7632197;32;38610;-82
2022/08/01 00:21:04;;;;;;;3.42;2.30;;;;;;;17.72;61.26;99593.50;7633072;32;37337;-81
2022/08/01 00:25:20;;;;;;;5.28;2.53;;;;;;;17.67;61.46;99610.19;7633296;32;39250;-81
2022/08/01 00:29:48;;;;;;;2.55;2.05;;;;;;;17.63;61.38;99599.81;7633132;32;40707;-80
2022/08/01 00:34:24;;;;;;;5.53;2.40;;;;;;;17.61;61.58;99604.03;7632507;32;39555;-81
2022/08/01 00:38:40;;;;;;;3.72;2.45;;;;;;;17.57;61.73;99603.03;7632581;32;37221;-82
2022/08/01 00:42:56;;;;;;;4.60;2.42;;;;;;;17.12;63.22;99604.09;7632863;32;40109;-81
2022/08/01 00:47:12;;;;;;;3.97;2.75;;;;;;;17.21;62.97;99607.72;7606713;32;40906;-81
2022/08/01 00:51:28;;;;;;;4.10;2.50;;;;;;;17.45;62.05;99603.69;7606723;32;38678;-81
2022/08/01 00:55:44;;;;;;;4.03;2.58;;;;;;;17.26;62.49;99596.53;7612524;32;36756;-81
2022/08/01 01:00:01;;;;;;;3.37;2.30;;;;;;;16.85;64.13;99592.22;7632589;32;39861;-80
2022/08/01 01:04:17;;;;;;;4.07;2.45;;;;;;;17.13;62.98;99600.22;7632787;32;40599;-80
2022/08/01 01:08:41;;;;;;;4.47;2.55;;;;;;;17.21;62.79;99602.19;7632357;32;38691;-81
2022/08/01 01:13:20;;;;;;;6.28;2.70;;;;;;;17.21;62.87;99599.44;7632552;32;37913;-80
2022/08/01 01:18:02;;;;;;;5.68;2.58;;;;;;;17.05;63.65;99603.75;7619708;32;40242;-82
2022/08/01 01:22:55;;;;;;;6.90;2.97;;;;;;;17.17;63.19;99598.44;7632559;32;39848;-82
2022/08/01 01:27:39;;;;;;;3.28;2.50;;;;;;;17.21;63.00;99590.34;7632372;32;38723;-82
2022/08/01 01:32:12;;;;;;;4.45;2.53;;;;;;;17.19;63.13;99590.66;7621437;32;37682;-82
2022/08/01 01:36:30;;;;;;;4.60;2.53;;;;;;;17.12;63.40;99595.84;7618997;32;40095;-83
2022/08/01 01:40:48;;;;;;;5.68;2.55;;;;;;;17.15;63.47;99595.19;7617543;32;39999;-82
2022/08/01 01:45:05;;;;;;;4.90;2.50;;;;;;;17.19;63.26;99593.41;7618970;32;36807;-83
2022/08/01 01:49:23;;;;;;;5.60;2.33;;;;;;;17.19;63.07;99585.16;7618718;32;37274;-83
2022/08/01 01:53:40;;;;;;;5.22;2.60;;;;;;;17.15;63.08;99595.19;7619006;32;38275;-82
2022/08/01 01:57:57;;;;;;;3.90;2.47;;;;;;;17.16;63.01;99598.75;7632087;32;40902;-82
2022/08/01 02:02:15;;;;;;;6.82;2.95;;;;;;;17.13;63.21;99585.66;7631038;32;38643;-82
2022/08/01 02:06:33;;;;;;;4.78;2.50;;;;;;;16.95;63.83;99584.78;7618923;32;36937;-82
2022/08/01 02:15:27;;;;;;;5.35;3.20;;;;;;;17.03;63.63;99572.97;7620744;32;40044;-81
2022/08/01 02:19:44;;;;;;;3.90;3.00;;;;;;;17.05;63.58;99574.28;7618106;32;39448;-81
2022/08/01 02:24:34;;;;;;;9.18;3.25;;;;;;;16.80;64.42;99578.56;7631764;32;37156;-82
2022/08/01 02:28:55;;;;;;;3.58;2.58;;;;;;;16.73;64.79;99577.38;7627552;32;37744;-83
2022/08/01 02:33:26;;;;;;;4.45;2.65;;;;;;;16.83;64.25;99579.84;7618515;32;39944;-83
2022/08/01 02:37:42;;;;;;;6.55;3.03;;;;;;;16.92;63.83;99577.16;7631386;32;36587;-83
2022/08/01 02:42:05;;;;;;;5.45;2.65;;;;;;;17.12;63.04;99576.56;7631429;32;37826;-83
2022/08/01 02:46:33;;;;;;;4.87;2.95;;;;;;;17.05;63.29;99578.97;7618378;32;39421;-83
2022/08/01 02:50:51;;;;;;;6.72;2.97;;;;;;;16.78;64.06;99567.06;7631267;32;40736;-82
2022/08/01 02:55:08;;;;;;;8.07;2.80;;;;;;;16.98;63.68;99564.88;7631147;32;38426;-82
2022/08/01 02:59:25;;;;;;;3.53;2.62;;;;;;;17.00;63.47;99557.09;7630805;32;37823;-82
2022/08/01 03:03:41;;;;;;;4.25;2.87;;;;;;;16.93;63.47;99548.50;7617711;32;40157;-82
2022/08/01 03:07:58;;;;;;;5.10;3.20;;;;;;;16.81;63.73;99555.38;7617341;32;40835;-82
2022/08/01 03:12:23;;;;;;;5.45;2.92;;;;;;;16.67;63.95;99551.94;7617622;32;38776;-81
2022/08/01 03:16:41;;;;;;;4.25;2.95;;;;;;;16.71;64.07;99553.75;7617708;32;37775;-82
2022/08/01 03:20:59;;;;;;;6.20;2.85;;;;;;;16.81;63.66;99558.13;7617339;32;39369;-82
2022/08/01 03:25:18;;;;;;;3.92;3.03;;;;;;;16.87;63.32;99559.66;7617319;32;41573;-83
2022/08/01 03:29:34;;;;;;;5.72;3.42;;;;;;;16.86;63.04;99552.50;7629907;32;37903;-83
2022/08/01 03:33:50;;;;;;;4.65;3.30;;;;;;;16.87;63.08;99548.66;7630148;32;37286;-83
2022/08/01 03:38:10;;;;;;;7.22;3.10;;;;;;;16.75;63.53;99556.69;7617284;32;40252;-83
2022/08/01 03:42:41;;;;;;;6.78;3.47;;;;;;;16.46;66.17;99552.50;7633712;32;40203;-83
2022/08/01 03:47:08;;;;;;;6.15;3.17;;;;;;;16.53;65.80;99558.37;7621247;32;37968;-83
2022/08/01 03:51:24;;;;;;;6.47;3.17;;;;;;;16.70;65.12;99557.63;7633602;32;37584;-83
2022/08/01 03:55:43;;;;;;;4.32;3.05;;;;;;;16.79;65.00;99557.66;7620060;32;39120;-83
2022/08/01 04:00:00;;;;;;;4.50;2.78;;;;;;;16.63;66.57;99575.75;7633544;32;39010;-83
2022/08/01 04:04:16;;;;;;;4.50;3.28;;;;;;;16.76;66.41;99577.56;7619713;32;38633;-83
2022/08/01 04:08:38;;;;;;;5.35;3.58;;;;;;;16.89;65.93;99570.34;7633288;32;37837;-83
2022/08/01 04:12:54;;;;;;;7.87;3.53;;;;;;;16.83;66.58;99577.94;7633501;32;39053;-81
2022/08/01 04:17:10;;;;;;;7.80;3.87;;;;;;;17.00;65.97;99581.87;7632928;32;39574;-81
2022/08/01 04:21:28;;;;;;;6.53;3.33;;;;;;;16.95;65.91;99574.56;7633241;32;37507;-83
2022/08/01 04:25:45;;;;;;;8.38;3.72;;;;;;;17.10;65.32;99567.81;7619865;32;37155;-83
2022/08/01 04:30:02;;;;;;;8.05;4.10;;;;;;;17.16;65.07;99571.22;7620035;32;39253;-83
2022/08/01 04:34:21;;;;;;;7.68;3.80;;;;;;;17.29;64.53;99570.28;7619698;32;40784;-82
2022/08/01 04:38:38;;;;;;;9.35;4.00;;;;;;;17.20;64.62;99575.78;7633069;32;38017;-83
2022/08/01 04:42:54;;;;;;;7.22;3.80;;;;;;;17.37;63.92;99576.94;7619369;32;37210;-83
2022/08/01 04:47:11;;;;;;;9.93;3.50;;;;;;;17.40;63.83;99576.28;7619431;32;39449;-83
2022/08/01 04:51:27;;;;;;;7.15;4.18;;;;;;;17.61;63.39;99577.28;7619315;32;39627;-83
2022/08/01 04:55:45;;;;;;;5.70;3.83;;;;;;;17.69;63.11;99580.34;7632807;32;37545;-83
2022/08/01 05:00:02;;;;;;;9.95;3.83;;;;;;;17.90;62.71;99580.53;7632890;32;37010;-85
2022/08/01 05:04:18;;;;;;;8.18;4.10;;;;;;;17.75;63.59;99579.88;7632488;32;40460;-82
2022/08/01 05:08:35;;;;;;;13.13;3.83;;;;;;;17.74;64.08;99588.47;7632573;32;40034;-82
2022/08/01 05:12:52;;;;;;;6.72;3.65;;;;;;;17.87;63.80;99576.50;7632410;32;38736;-82
2022/08/01 05:17:09;;;;;;;7.22;4.18;;;;;;;18.12;63.33;99590.56;7632539;32;37093;-82
2022/08/01 05:21:25;;;;;;;4.12;3.42;;;;;;;18.18;63.88;99589.28;7632401;32;40057;-81
2022/08/01 05:25:42;;;;;;;8.90;4.78;;;;;;;18.40;63.60;99579.94;7632239;32;40074;-81
2022/08/01 05:30:13;;;;;;;4.53;3.03;;;;;;;18.61;63.16;99590.25;7632402;32;37908;-83
2022/08/01 05:34:29;;;;;;;11.25;4.25;;;;;;;18.93;63.10;99586.91;7632216;32;36983;-78
2022/08/01 05:38:45;;;;;;;7.97;4.47;;;;;;;19.19;61.22;99579.63;7632346;32;39324;-79
2022/08/01 05:43:01;;;;;;;5.95;3.55;;;;;;;19.58;59.88;99572.03;7632392;32;40735;-79
2022/08/01 05:47:18;;;;;;;7.87;3.83;;;;;;;19.81;58.62;99578.84;7632200;32;37856;-79
2022/08/01 05:51:34;;;;;;;9.27;3.80;;;;;;;20.20;57.67;99576.69;7632245;32;37189;-79
2022/08/01 05:55:50;;;;;;;8.13;5.10;;;;;;;20.41;56.99;99575.81;7631854;32;39448;-81
2022/08/01 06:00:07;;;;;;;12.65;5.95;;;;;;;20.59;57.13;99571.72;7632045;32;40835;-75
2022/08/01 06:04:23;;;;;;;6.93;4.12;;;;;;;20.42;58.43;99585.72;7631363;32;38459;-73
2022/08/01 06:08:39;;;;;;;8.48;3.70;;;;;;;19.83;59.89;99595.09;7632328;32;37894;-74
2022/08/01 06:12:55;;;;;;;5.93;3.42;;;;;;;20.44;58.44;99591.75;7631511;32;40247;-77
2022/08/01 06:17:11;;;;;;;7.87;3.70;;;;;;;20.21;59.51;99599.63;7631731;32;39993;-77
2022/08/01 06:21:27;;;;;;;7.68;3.72;;;;;;;20.59;57.63;99599.41;7631669;32;38754;-76
2022/08/01 06:25:43;;;;;;;5.30;3.35;;;;;;;20.85;56.84;99591.94;7631645;32;37137;-76
2022/08/01 06:29:59;;;;;;;6.03;3.58;;;;;;;20.61;57.94;99594.31;7631603;32;39292;-75
2022/08/01 06:34:15;;;;;;;4.18;3.05;;;;;;;21.13;57.47;99594.84;7631496;32;40797;-74
2022/08/01 06:38:31;;;;;;;13.73;3.58;;;;;;;20.40;59.17;99597.16;7631461;32;38585;-74
2022/08/01 06:42:48;;;;;;;5.75;3.17;;;;;;;20.63;59.19;99589.28;7631058;32;37904;-76
2022/08/01 06:47:04;;;;;;;7.20;3.58;;;;;;;20.99;58.54;99590.44;7631285;32;39521;-78
2022/08/01 06:51:20;;;;;;;8.60;3.15;;;;;;;21.00;55.77;99597.59;7631147;32;40755;-79
2022/08/01 06:55:38;;;;;;;7.40;3.58;;;;;;;21.14;57.69;99593.66;7630482;32;37096;-78
2022/08/01 06:59:55;;;;;;;5.20;3.20;;;;;;;21.12;55.82;99584.91;7630767;32;36730;-77
2022/08/01 07:04:11;;;;;;;7.15;3.10;;;;;;;21.22;55.74;99573.34;7627085;32;40270;-78
2022/08/01 07:08:27;;;;;;;5.78;3.47;;;;;;;22.04;54.25;99574.97;7612592;32;40897;-81
2022/08/01 07:12:43;;;;;;;5.90;3.35;;;;;;;22.24;52.75;99566.75;7616916;32;37869;-78
2022/08/01 07:16:59;;;;;;;4.72;2.87;;;;;;;22.28;51.86;99567.69;7634028;32;37094;-76
2022/08/01 07:21:15;;;;;;;6.25;2.97;;;;;;;22.38;51.82;99581.03;7633884;32;39336;-77
2022/08/01 07:25:52;;;;;;;5.15;2.97;;;;;;;22.08;53.35;99578.62;7633584;32;40166;-77
2022/08/01 07:30:13;;;;;;;5.28;3.00;;;;;;;22.39;51.44;99577.13;7633181;32;37769;-78
2022/08/01 07:34:29;;;;;;;9.10;2.80;;;;;;;22.74;51.40;99581.97;7633261;32;36935;-77
2022/08/01 07:38:45;;;;;;;7.82;2.60;;;;;;;23.16;49.71;99581.44;7633147;32;38990;-73
2022/08/01 07:43:02;;;;;;;6.28;2.90;;;;;;;23.17;50.12;99582.22;7632534;32;40764;-79
2022/08/01 07:47:24;;;;;;;4.82;2.72;;;;;;;23.53;50.30;99575.47;7632939;32;37904;-79
2022/08/01 07:51:40;;;;;;;5.32;2.85;;;;;;;23.70;50.32;99581.78;7627732;32;37139;-76
2022/08/01 07:55:56;;;;;;;4.40;2.80;;;;;;;23.58;50.20;99585.53;7645209;32;40187;-76
2022/08/01 08:00:13;;;;;;;6.22;3.10;;;;;;;23.39;49.04;99584.31;7628302;32;39926;-75
2022/08/01 08:04:29;;;;;;;4.18;2.65;;;;;;;23.85;49.92;99583.72;7632379;32;38572;-77
2022/08/01 08:08:45;;;;;;;5.37;2.45;;;;;;;23.87;48.44;99592.53;7631732;32;37153;-76
2022/08/01 08:13:01;;;;;;;5.25;2.62;;;;;;;23.84;48.90;99593.25;7632403;32;39380;-76
2022/08/01 08:17:17;;;;;;;8.65;2.95;;;;;;;23.73;49.13;99586.62;7632650;32;39906;-76
2022/08/01 08:21:33;;;;;;;6.35;2.72;;;;;;;23.95;48.55;99585.91;7631629;32;37980;-76
2022/08/01 08:25:49;;;;;;;2.97;2.60;;;;;;;24.28;48.51;99590.13;7632752;32;34887;-77
2022/08/01 08:30:07;;;;;;;2.80;2.33;;;;;;;24.15;47.61;99588.69;7618402;32;40046;-75
2022/08/01 08:34:25;;;;;;;3.50;2.50;;;;;;;24.43;48.35;99585.62;7619122;32;40044;-77
2022/08/01 08:38:41;;;;;;;3.03;2.40;;;;;;;24.34;45.90;99594.22;7632436;32;37748;-76
2022/08/01 08:42:59;;;;;;;4.57;2.30;;;;;;;24.38;47.05;99594.28;7631159;32;36740;-73
2022/08/01 08:47:16;;;;;;;4.87;2.62;;;;;;;24.36;46.22;99596.63;7616987;32;38913;-73
2022/08/01 08:51:38;;;;;;;6.00;2.80;;;;;;;24.32;47.44;99599.38;7630341;32;40893;-73
2022/08/01 08:55:57;;;;;;;7.80;3.12;;;;;;;24.59;47.10;99599.47;7615261;32;38000;-72
2022/08/01 09:00:14;;;;;;;5.53;2.40;;;;;;;24.44;47.44;99606.75;7614972;32;36351;-73
2022/08/01 09:04:30;;;;;;;9.70;2.92;;;;;;;24.62;48.42;99598.72;7628332;32;40002;-73
2022/08/01 09:08:47;;;;;;;4.65;2.60;;;;;;;24.53;49.21;99593.38;7615807;32;40397;-72
2022/08/01 09:13:11;;;;;;;4.28;2.62;;;;;;;24.64;48.29;99599.16;7629191;32;37627;-74
2022/08/01 09:17:27;;;;;;;6.47;2.97;;;;;;;25.08;48.08;99606.25;7628914;32;37367;-73
2022/08/01 09:21:58;;;;;;;4.78;2.58;;;;;;;25.24;47.79;99606.09;7630444;32;39423;-75
2022/08/01 09:26:17;;;;;;;7.78;3.03;;;;;;;25.35;48.49;99601.50;7619162;32;40591;-74
2022/08/01 09:30:39;;;;;;;3.78;2.65;;;;;;;25.31;47.04;99595.06;7632243;32;38749;-74
2022/08/01 09:34:55;;;;;;;4.12;2.80;;;;;;;25.49;46.59;99598.94;7632382;32;37060;-76
2022/08/01 09:39:13;;;;;;;4.65;2.58;;;;;;;25.68;47.45;99594.38;7618149;32;40499;-75
2022/08/01 09:43:31;;;;;;;4.18;2.30;;;;;;;25.81;45.48;99592.16;7632448;32;40903;-74
2022/08/01 09:47:47;;;;;;;5.55;2.67;;;;;;;26.13;44.93;99584.19;7632370;32;38066;-76
2022/08/01 09:52:21;;;;;;;4.60;2.67;;;;;;;26.16;46.74;99583.41;7618751;32;37996;-76
2022/08/01 09:56:42;;;;;;;4.25;2.70;;;;;;;26.55;44.20;99577.41;7632230;32;38385;-75
2022/08/01 10:01:00;;;;;;;5.53;2.60;;;;;;;27.06;43.32;99575.03;7631606;32;39995;-76
2022/08/01 10:05:16;;;;;;;8.15;2.87;;;;;;;26.77;43.36;99577.66;7631881;32;38737;-75
2022/08/01 10:09:39;;;;;;;6.22;2.92;;;;;;;27.00;42.87;99585.00;7618913;32;37811;-75
2022/08/01 10:13:58;;;;;;;3.72;2.60;;;;;;;26.69;42.88;99573.19;7631942;32;40082;-74
2022/08/01 10:18:14;;;;;;;4.18;2.80;;;;;;;26.63;40.46;99580.28;7631851;32;39721;-74
2022/08/01 10:22:42;;;;;;;7.18;2.62;;;;;;;26.57;39.36;99583.41;7631556;32;38752;-76
2022/08/01 10:27:04;;;;;;;4.07;2.58;;;;;;;26.87;39.76;99576.94;7631660;32;38082;-75
2022/08/01 10:31:24;;;;;;;8.40;3.40;;;;;;;27.00;39.10;99576.63;7619202;32;39334;-73
2022/08/01 10:35:49;;;;;;;8.55;3.33;;;;;;;26.86;40.64;99582.91;7631380;32;39927;-75
2022/08/01 10:40:06;;;;;;;3.70;2.80;;;;;;;27.00;39.78;99573.81;7617796;32;38708;-74
2022/08/01 10:44:45;;;;;;;4.30;2.85;;;;;;;26.94;40.32;99582.56;7619841;32;37467;-76
2022/08/01 10:49:09;;;;;;;7.22;3.00;;;;;;;27.35;41.06;99585.28;7630947;32;40124;-75
2022/08/01 10:53:28;;;;;;;5.72;2.97;;;;;;;27.44;39.54;99570.09;7618285;32;39644;-75
2022/08/01 10:57:47;;;;;;;4.55;3.10;;;;;;;27.61;38.70;99563.78;7630889;32;36854;-73
2022/08/01 11:02:07;;;;;;;4.40;2.80;;;;;;;27.83;39.32;99561.09;7630808;32;37941;-76
2022/08/01 11:06:34;;;;;;;5.20;2.83;;;;;;;27.82;38.73;99553.88;7630613;32;39652;-76
2022/08/01 11:10:59;;;;;;;6.90;3.22;;;;;;;28.19;37.42;99550.03;7617960;32;39700;-77
2022/08/01 11:15:24;;;;;;;4.57;2.90;;;;;;;28.33;39.24;99543.63;7618226;32;38792;-76
2022/08/01 11:20:08;;;;;;;5.05;3.37;;;;;;;28.46;37.56;99534.44;7630203;32;36796;-76
2022/08/01 11:24:50;;;;;;;5.97;3.10;;;;;;;28.91;37.17;99528.44;7630166;32;39420;-75
2022/08/01 11:29:17;;;;;;;5.12;3.00;;;;;;;28.74;34.57;99532.06;7630173;32;39818;-75
2022/08/01 11:33:44;;;;;;;4.82;3.03;;;;;;;28.25;37.16;99540.84;7629965;32;38833;-73
2022/08/01 11:38:27;;;;;;;4.57;2.97;;;;;;;28.13;36.04;99538.41;7629969;32;37859;-74
2022/08/01 11:42:43;;;;;;;3.47;2.95;;;;;;;28.86;37.25;99525.25;7629927;32;40096;-76
2022/08/01 11:47:11;;;;;;;7.43;2.33;;;;;;;28.91;33.72;99524.84;7629604;32;40687;-75
2022/08/01 11:51:28;;;;;;;5.78;2.50;;;;;;;28.52;34.99;99517.22;7616395;32;37951;-75
2022/08/01 11:55:48;;;;;;;3.40;2.47;;;;;;;28.44;33.72;99522.00;7628668;32;37208;-74
2022/08/01 12:00:14;;;;;;;4.32;2.53;;;;;;;28.87;34.18;99518.41;7630072;32;40260;-76
2022/08/01 12:04:54;;;;;;;4.30;2.95;;;;;;;29.27;34.26;99519.16;7630832;32;39992;-78
2022/08/01 12:09:23;;;;;;;6.45;2.70;;;;;;;29.51;33.73;99523.09;7630508;32;37935;-76
2022/08/01 12:13:44;;;;;;;7.37;2.87;;;;;;;29.55;32.15;99521.06;7631186;32;37918;-76
2022/08/01 12:18:06;;;;;;;3.03;2.12;;;;;;;29.26;33.81;99523.19;7632132;32;38285;-76
2022/08/01 12:22:23;;;;;;;4.15;2.75;;;;;;;29.43;31.44;99511.09;7632108;32;40011;-74
2022/08/01 12:26:41;;;;;;;4.40;2.55;;;;;;;29.12;31.20;99521.97;7631905;32;37968;-74
2022/08/01 12:30:57;;;;;;;3.25;2.22;;;;;;;29.50;31.51;99508.25;7631737;32;36864;-74
2022/08/01 12:35:19;;;;;;;6.28;2.40;;;;;;;30.11;29.65;99510.78;7629919;32;39458;-75
2022/08/01 12:39:36;;;;;;;2.53;1.95;;;;;;;30.52;29.63;99510.06;7630367;32;40822;-75
2022/08/01 12:43:55;;;;;;;5.20;2.10;;;;;;;30.50;27.69;99511.72;7617217;32;37619;-75
2022/08/01 12:48:13;;;;;;;5.12;2.00;;;;;;;31.18;25.59;99507.47;7631814;32;37157;-75
2022/08/01 12:52:31;;;;;;;5.85;2.10;;;;;;;31.28;27.82;99500.91;7631868;32;39953;-76
2022/08/01 12:56:47;;;;;;;3.05;2.03;;;;;;;30.91;27.21;99494.06;7632636;32;39732;-78
2022/08/01 13:01:08;;;;;;;4.18;1.77;;;;;;;31.17;27.91;99500.25;7632705;32;38709;-76
2022/08/01 13:05:25;;;;;;;6.50;1.90;;;;;;;31.18;29.22;99493.38;7632786;32;37137;-75
2022/08/01 13:09:50;;;;;;;3.10;1.70;;;;;;;31.70;28.64;99492.38;7632626;32;39397;-76
2022/08/01 13:14:06;;;;;;;4.93;1.87;;;;;;;32.21;26.27;99476.34;7618408;32;40071;-76
2022/08/01 13:18:25;;;;;;;3.85;1.80;;;;;;;32.08;26.81;99484.63;7632128;32;37876;-76
2022/08/01 13:22:41;;;;;;;3.17;1.90;;;;;;;32.66;26.63;99483.69;7632494;32;38052;-77
2022/08/01 13:26:59;;;;;;;5.65;1.95;;;;;;;32.44;25.79;99478.38;7632592;32;39330;-76
2022/08/01 13:31:16;;;;;;;4.47;1.70;;;;;;;32.92;26.09;99476.34;7632299;32;40056;-77
2022/08/01 13:35:32;;;;;;;4.35;1.90;;;;;;;33.04;25.51;99483.37;7632185;32;37977;-76
2022/08/01 13:39:48;;;;;;;4.20;1.90;;;;;;;32.59;25.36;99484.56;7632372;32;37271;-75
2022/08/01 13:44:04;;;;;;;2.83;1.42;;;;;;;33.06;25.70;99483.75;7632321;32;39154;-80
2022/08/01 13:48:21;;;;;;;2.17;1.70;;;;;;;33.61;25.74;99459.63;7632283;32;39742;-79
2022/08/01 13:52:38;;;;;;;2.37;1.60;;;;;;;33.97;24.98;99472.97;7626688;32;38291;-79
2022/08/01 13:56:55;;;;;;;2.75;1.62;;;;;;;34.03;22.49;99471.22;7631544;32;37146;-77
2022/08/01 14:01:11;;;;;;;3.42;1.60;;;;;;;33.62;24.01;99472.53;7629777;32;39402;-74
2022/08/01 14:05:28;;;;;;;1.70;1.52;;;;;;;33.89;24.10;99477.19;7632037;32;39299;-78
2022/08/01 14:09:44;;;;;;;1.95;1.70;;;;;;;34.05;23.52;99468.75;7631867;32;38007;-78
2022/08/01 14:14:21;;;;;;;3.08;1.65;;;;;;;33.57;22.94;99478.69;7629259;32;38190;-79
2022/08/01 14:18:37;;;;;;;4.25;1.60;;;;;;;33.27;23.77;99472.06;7629544;32;39188;-79
2022/08/01 14:22:53;;;;;;;2.83;1.80;;;;;;;33.94;25.04;99468.19;7628864;32;39608;-80
2022/08/01 14:27:09;;;;;;;4.20;1.80;;;;;;;34.51;23.81;99482.97;7631407;32;38696;-76
2022/08/01 14:31:25;;;;;;;2.37;1.87;;;;;;;34.45;24.12;99484.00;7617278;32;37262;-76
2022/08/01 14:35:47;;;;;;;4.30;1.67;;;;;;;34.79;22.21;99481.50;7631347;32;39082;-75
2022/08/01 14:40:21;;;;;;;2.28;1.80;;;;;;;34.61;22.00;99492.44;7631223;32;39612;-76
2022/08/01 14:44:37;;;;;;;2.25;1.67;;;;;;;34.77;23.28;99491.66;7630641;32;37685;-76
2022/08/01 14:49:01;;;;;;;2.10;1.62;;;;;;;35.41;21.60;99486.28;7630774;32;37398;-76
2022/08/01 14:53:17;;;;;;;2.05;1.60;;;;;;;35.29;21.49;99473.66;7626931;32;40146;-75
2022/08/01 14:57:34;;;;;;;2.67;1.58;;;;;;;35.26;21.91;99476.59;7630518;32;41576;-76
2022/08/01 15:01:50;;;;;;;4.28;1.70;;;;;;;35.35;22.85;99476.72;7630358;32;37842;-75
2022/08/01 15:06:06;;;;;;;2.83;1.65;;;;;;;35.31;21.36;99464.72;7628537;32;37105;-76
2022/08/01 15:10:22;;;;;;;3.35;1.67;;;;;;;35.34;21.54;99472.28;7629836;32;39511;-77
2022/08/01 15:14:48;;;;;;;3.20;1.67;;;;;;;35.14;21.58;99473.25;7629278;32;40617;-76
2022/08/01 15:19:04;;;;;;;4.80;1.83;;;;;;;35.22;23.09;99478.72;7630313;32;38967;-76
2022/08/01 15:23:20;;;;;;;9.85;2.35;;;;;;;35.21;23.82;99472.28;7629705;32;37897;-76
2022/08/01 15:27:37;;;;;;;4.28;1.58;;;;;;;35.17;22.21;99480.84;7629814;32;37958;-76
2022/08/01 15:31:53;;;;;;;3.53;1.70;;;;;;;35.20;23.61;99475.53;7629821;32;40919;-76
2022/08/01 15:36:09;;;;;;;2.00;1.48;;;;;;;34.82;22.55;99479.78;7630647;32;37979;-76
2022/08/01 15:40:33;;;;;;;2.78;1.60;;;;;;;35.18;22.28;99470.31;7625079;32;36978;-75
2022/08/01 15:44:50;;;;;;;3.78;1.87;;;;;;;34.27;23.78;99471.06;7632227;32;39430;-76
2022/08/01 15:49:06;;;;;;;4.70;2.05;;;;;;;34.53;23.73;99485.38;7632806;32;39988;-76
2022/08/01 15:53:23;;;;;;;3.62;1.87;;;;;;;34.10;24.46;99486.41;7632109;32;37739;-76
2022/08/01 15:57:39;;;;;;;4.12;1.70;;;;;;;34.53;23.41;99479.72;7632411;32;37335;-76
2022/08/01 16:01:55;;;;;;;4.78;1.80;;;;;;;34.31;23.72;99479.50;7633022;32;39044;-77
2022/08/01 16:06:11;;;;;;;4.62;1.80;;;;;;;33.94;25.69;99493.62;7632551;32;40002;-77
2022/08/01 16:10:27;;;;;;;7.95;1.58;;;;;;;33.90;24.52;99492.13;7631343;32;37993;-79
2022/08/01 16:14:43;;;;;;;2.20;1.52;;;;;;;33.89;25.66;99493.38;7625473;32;37927;-79
2022/08/01 16:19:00;;;;;;;10.20;1.83;;;;;;;34.16;25.05;99491.09;7632680;32;39339;-78
2022/08/01 16:23:16;;;;;;;3.90;2.20;;;;;;;33.94;24.36;99490.00;7633173;32;40110;-78
2022/08/01 16:27:32;;;;;;;3.72;1.87;;;;;;;34.01;24.28;99485.00;7630989;32;37875;-79
2022/08/01 16:31:53;;;;;;;7.70;2.37;;;;;;;33.95;25.41;99491.63;7632194;32;35649;-78
2022/08/01 16:36:26;;;;;;;1.87;1.65;;;;;;;33.79;25.97;99495.19;7631277;32;38077;-80
2022/08/01 16:40:42;;;;;;;19.33;9.13;;;;;;;33.83;25.73;99490.28;7618284;32;40087;-80
2022/08/01 16:45:02;;;;;;;5.40;2.72;;;;;;;33.63;25.74;99488.25;7632441;32;38774;-78
2022/08/01 16:49:28;;;;;;;3.72;2.50;;;;;;;33.05;26.20;99485.78;7632099;32;37262;-81
2022/08/01 16:53:45;;;;;;;6.43;2.70;;;;;;;33.26;25.48;99493.06;7631382;32;39119;-81
2022/08/01 16:58:02;;;;;;;3.85;2.42;;;;;;;32.84;27.15;99495.44;7632082;32;39929;-80
2022/08/01 17:02:18;;;;;;;2.25;1.73;;;;;;;33.11;26.36;99486.06;7618362;32;38673;-82
2022/08/01 17:06:34;;;;;;;7.85;2.35;;;;;;;32.69;26.95;99488.47;7632359;32;37078;-80
2022/08/01 17:10:51;;;;;;;3.08;1.95;;;;;;;32.23;27.63;99485.16;7632376;32;39040;-80
2022/08/01 17:15:09;;;;;;;5.85;1.87;;;;;;;31.96;28.55;99504.87;7631247;32;39875;-78
2022/08/01 17:19:26;;;;;;;2.83;2.08;;;;;;;31.81;29.13;99499.44;7630447;32;38624;-74
2022/08/01 17:23:48;;;;;;;3.83;2.05;;;;;;;31.05;30.03;99510.81;7630508;32;37011;-78
2022/08/01 17:28:04;;;;;;;4.22;1.98;;;;;;;31.21;29.98;99506.63;7616199;32;39373;-74
2022/08/01 17:32:21;;;;;;;4.68;2.20;;;;;;;30.89;30.79;99507.72;7629573;32;39657;-78
2022/08/01 17:36:38;;;;;;;2.83;2.25;;;;;;;30.80;31.55;99510.25;7630214;32;37966;-77
2022/08/01 17:40:54;;;;;;;8.85;2.42;;;;;;;30.80;32.15;99510.25;7629504;32;37267;-77
2022/08/01 17:45:11;;;;;;;4.30;2.17;;;;;;;30.67;31.83;99510.75;7629841;32;40365;-76
2022/08/01 17:49:43;;;;;;;5.28;2.35;;;;;;;30.36;31.89;99512.63;7616294;32;38638;-82
2022/08/01 17:54:10;;;;;;;3.83;2.40;;;;;;;30.18;33.50;99507.09;7629670;32;38676;-78
2022/08/01 17:58:26;;;;;;;4.37;2.30;;;;;;;30.04;33.45;99516.41;7628844;32;37185;-76
2022/08/01 18:03:04;;;;;;;2.85;2.20;;;;;;;29.78;33.86;99535.44;7628414;32;40481;-78
2022/08/01 18:07:23;;;;;;;3.47;2.28;;;;;;;29.65;34.73;99530.66;7622141;32;237873;-77
2022/08/01 18:12:00;;;;;;;5.12;2.33;;;;;;;29.26;34.07;99540.03;7626687;32;39089;-81
2022/08/01 18:16:18;;;;;;;5.00;2.50;;;;;;;29.23;34.90;99535.22;7626887;32;37073;-76
2022/08/01 18:20:35;;;;;;;4.62;2.17;;;;;;;29.06;34.97;99543.22;7621249;32;65686;-74
2022/08/01 18:24:51;;;;;;;2.62;2.42;;;;;;;28.88;36.86;99543.28;7625164;32;40086;-77
2022/08/01 18:29:08;;;;;;;4.10;2.80;;;;;;;28.55;38.55;99542.47;7630738;32;38261;-77
2022/08/01 18:33:27;;;;;;;3.67;2.40;;;;;;;28.40;37.67;99547.22;7630432;32;37439;-78
2022/08/01 18:37:43;;;;;;;3.53;2.55;;;;;;;28.20;38.11;99565.63;7630732;32;38997;-78
2022/08/01 18:42:10;;;;;;;3.05;2.17;;;;;;;28.01;39.33;99562.00;7630174;32;40845;-79
2022/08/01 18:46:26;;;;;;;8.30;2.60;;;;;;;27.81;39.65;99577.50;7617601;32;38758;-81
2022/08/01 18:50:42;;;;;;;4.95;2.47;;;;;;;27.62;39.79;99587.81;7630192;32;35424;-81
2022/08/01 18:54:59;;;;;;;5.65;2.92;;;;;;;27.61;39.24;99586.19;7630846;32;40077;-80
2022/08/01 18:59:15;;;;;;;5.60;2.65;;;;;;;27.58;39.44;99588.97;7630262;32;39641;-81
2022/08/01 19:03:31;;;;;;;4.50;2.80;;;;;;;27.31;39.30;99597.63;7630447;32;37579;-81
2022/08/01 19:07:47;;;;;;;4.37;2.65;;;;;;;27.33;39.14;99607.22;7629891;32;37550;-82
2022/08/01 19:12:22;;;;;;;5.78;2.37;;;;;;;27.21;40.59;99613.13;7622560;32;40241;-81
2022/08/01 19:16:38;;;;;;;8.02;2.92;;;;;;;27.14;39.89;99613.06;7633497;32;39928;-81
2022/08/01 19:20:54;;;;;;;3.80;2.58;;;;;;;27.03;40.74;99620.56;7632845;32;37962;-76
2022/08/01 19:25:12;;;;;;;6.03;3.15;;;;;;;26.91;40.54;99628.09;7620017;32;37127;-77
2022/08/01 19:29:34;;;;;;;4.30;2.60;;;;;;;26.89;40.57;99638.03;7633849;32;38361;-76
2022/08/01 19:33:52;;;;;;;7.50;2.50;;;;;;;26.53;42.73;99641.28;7633731;32;40589;-82
2022/08/01 19:38:10;;;;;;;4.07;2.87;;;;;;;26.41;42.75;99641.56;7624795;32;39529;-79
2022/08/01 19:42:29;;;;;;;4.55;2.92;;;;;;;26.36;42.71;99634.31;7633342;32;37711;-80
2022/08/01 19:46:45;;;;;;;6.03;2.60;;;;;;;26.18;42.83;99639.72;7633694;32;39829;-81
2022/08/01 19:51:05;;;;;;;3.72;2.65;;;;;;;26.08;43.82;99636.78;7633298;32;39929;-81
2022/08/01 19:55:27;;;;;;;17.33;8.82;;;;;;;25.90;43.77;99642.13;7633090;32;38039;-80
2022/08/01 19:59:46;;;;;;;18.93;8.63;;;;;;;26.03;42.83;99629.56;7620471;32;37215;-81
2022/08/01 20:04:03;;;;;;;7.18;3.53;;;;;;;25.90;43.19;99644.91;7632496;32;39403;-80
2022/08/01 20:08:20;;;;;;;4.45;2.58;;;;;;;25.96;42.74;99646.22;7618219;32;41019;-79
2022/08/01 20:12:37;;;;;;;8.20;2.55;;;;;;;25.85;43.76;99646.03;7632944;32;38178;-79
2022/08/01 20:16:54;;;;;;;6.53;2.67;;;;;;;25.68;44.26;99644.63;7632744;32;37111;-79
2022/08/01 20:21:12;;;;;;;4.60;3.00;;;;;;;25.66;44.48;99644.19;7616003;32;40154;-79
2022/08/01 20:25:29;;;;;;;7.50;3.05;;;;;;;25.59;44.50;99649.69;7630048;32;39950;-78
2022/08/01 20:29:59;;;;;;;5.65;2.70;;;;;;;25.52;44.20;99649.59;7619025;32;37657;-79